Time;durP1;ratioP1;P1;durP2;ratioP2;P2;SDS_P1;SDS_P2;PMS_P1;PMS_P2;Temp;Humidity;BMP_temperature;BMP_pressure;BME280_temperature;BME280_humidity;BME280_pressure;Samples;Min_cycle;Max_cycle;Signal;HPM_P1;HPM_P2
2023/10/14 00:01:30;;;;;;;5.60;2.40;;;;;;;;;;5016044;28;20224;-75
2023/10/14 00:04:34;;;;;;;7.00;2.27;;;;;;;;;;5016311;28;20181;-75
2023/10/14 00:07:38;;;;;;;6.73;2.60;;;;;;;;;;5016931;28;20209;-75
2023/10/14 00:10:43;;;;;;;6.40;2.50;;;;;;;;;;5017240;28;20185;-75
2023/10/14 00:13:49;;;;;;;5.50;2.50;;;;;;;;;;5016536;28;20185;-75
2023/10/14 00:16:53;;;;;;;8.07;2.47;;;;;;;;;;5017176;28;20181;-75
2023/10/14 00:19:58;;;;;;;10.60;2.97;;;;;;;;;;5016582;28;20633;-75
2023/10/14 00:23:03;;;;;;;7.50;2.50;;;;;;;;;;5015515;28;20228;-76
2023/10/14 00:26:17;;;;;;;6.57;2.87;;;;;;;;;;5016514;28;20181;-75
2023/10/14 00:29:29;;;;;;;4.07;2.40;;;;;;;;;;5016064;28;20641;-77
2023/10/14 00:32:33;;;;;;;8.23;2.60;;;;;;;;;;5015689;28;20221;-76
2023/10/14 00:35:40;;;;;;;8.10;2.77;;;;;;;;;;5015022;28;20632;-76
2023/10/14 00:38:45;;;;;;;7.03;2.93;;;;;;;;;;5015714;28;20522;-77
2023/10/14 00:41:52;;;;;;;3.40;2.20;;;;;;;;;;5014958;28;20229;-77
2023/10/14 00:44:56;;;;;;;4.80;2.43;;;;;;;;;;5014779;28;20190;-77
2023/10/14 00:48:00;;;;;;;6.93;2.60;;;;;;;;;;5014554;28;20217;-76
2023/10/14 00:51:05;;;;;;;6.43;2.47;;;;;;;;;;5014654;28;20278;-76
2023/10/14 00:54:10;;;;;;;6.10;2.20;;;;;;;;;;5003243;28;20181;-77
2023/10/14 01:00:33;;;;;;;4.80;2.63;;;;;;;;;;5015231;28;20186;-76
2023/10/14 01:03:37;;;;;;;7.57;2.57;;;;;;;;;;5014700;28;20181;-77
2023/10/14 01:06:59;;;;;;;5.63;2.40;;;;;;;;;;5014246;28;20186;-77
2023/10/14 01:10:05;;;;;;;5.03;2.43;;;;;;;;;;5014297;28;20178;-77
2023/10/14 01:13:13;;;;;;;4.97;2.63;;;;;;;;;;5002802;28;20225;-76
2023/10/14 01:16:24;;;;;;;4.10;2.60;;;;;;;;;;5014909;28;20186;-77
2023/10/14 01:19:28;;;;;;;6.77;2.83;;;;;;;;;;5014438;28;20629;-76
2023/10/14 01:22:34;;;;;;;7.37;2.60;;;;;;;;;;5014567;28;20216;-76
2023/10/14 01:25:47;;;;;;;8.47;2.60;;;;;;;;;;5014662;28;20186;-76
2023/10/14 01:28:59;;;;;;;6.43;2.70;;;;;;;;;;5013869;28;20676;-76
2023/10/14 01:32:23;;;;;;;9.10;3.10;;;;;;;;;;5014011;28;20225;-76
2023/10/14 01:38:36;;;;;;;6.70;2.87;;;;;;;;;;5014155;28;20181;-76
2023/10/14 01:41:41;;;;;;;8.07;2.87;;;;;;;;;;5002439;28;20692;-76
2023/10/14 01:44:45;;;;;;;5.27;2.53;;;;;;;;;;5014561;28;20189;-76
2023/10/14 01:48:00;;;;;;;9.30;2.57;;;;;;;;;;5014450;28;20676;-75
2023/10/14 01:51:05;;;;;;;4.77;2.53;;;;;;;;;;5012989;28;20190;-75
2023/10/14 01:54:10;;;;;;;9.03;2.83;;;;;;;;;;5013772;28;20629;-75
2023/10/14 01:57:18;;;;;;;10.03;2.70;;;;;;;;;;5013703;28;20182;-75
2023/10/14 02:00:25;;;;;;;7.43;2.83;;;;;;;;;;5013443;28;20193;-75
2023/10/14 02:03:33;;;;;;;5.07;2.87;;;;;;;;;;5014520;28;20185;-75
2023/10/14 02:06:43;;;;;;;8.17;3.03;;;;;;;;;;5014547;28;20194;-75
2023/10/14 02:09:55;;;;;;;6.20;2.77;;;;;;;;;;5013487;28;20181;-77
2023/10/14 02:13:00;;;;;;;6.77;2.70;;;;;;;;;;5014163;28;20217;-76
2023/10/14 02:16:08;;;;;;;5.27;2.60;;;;;;;;;;5013243;28;20185;-76
2023/10/14 02:19:21;;;;;;;6.17;2.50;;;;;;;;;;5001697;28;20178;-75
2023/10/14 02:22:25;;;;;;;8.20;2.87;;;;;;;;;;5014332;28;20225;-75
2023/10/14 02:25:31;;;;;;;5.57;2.93;;;;;;;;;;5002287;28;20189;-76
2023/10/14 02:28:45;;;;;;;6.23;2.80;;;;;;;;;;5012846;28;20573;-75
2023/10/14 02:31:50;;;;;;;9.03;3.23;;;;;;;;;;5012984;28;20225;-76
2023/10/14 02:34:54;;;;;;;9.10;3.07;;;;;;;;;;5012902;28;20189;-76
2023/10/14 02:38:00;;;;;;;7.03;3.00;;;;;;;;;;5012843;28;20189;-76
2023/10/14 02:41:04;;;;;;;5.47;2.77;;;;;;;;;;5012916;28;20629;-76
2023/10/14 02:47:13;;;;;;;6.30;2.70;;;;;;;;;;5013723;28;20641;-76
2023/10/14 02:50:24;;;;;;;5.53;3.00;;;;;;;;;;5012621;28;20178;-76
2023/10/14 02:53:28;;;;;;;6.53;2.73;;;;;;;;;;5013492;28;20182;-75
2023/10/14 02:57:23;;;;;;;4.20;2.47;;;;;;;;;;5012797;28;20186;-76
2023/10/14 02:59:57;;;;;;;6.43;2.67;;;;;;;;;;5007184;28;20174;-76
2023/10/14 03:03:12;;;;;;;5.10;2.60;;;;;;;;;;5014604;28;20225;-75
2023/10/14 03:06:18;;;;;;;5.77;3.00;;;;;;;;;;5016755;28;20185;-75
2023/10/14 03:09:32;;;;;;;8.90;3.27;;;;;;;;;;5016658;28;20217;-76
2023/10/14 03:12:40;;;;;;;7.53;2.97;;;;;;;;;;5016261;28;20229;-75
2023/10/14 03:15:44;;;;;;;6.83;3.23;;;;;;;;;;5016483;28;20182;-75
2023/10/14 03:18:49;;;;;;;4.83;2.97;;;;;;;;;;5016827;28;20173;-76
2023/10/14 03:21:58;;;;;;;4.70;2.80;;;;;;;;;;5016497;28;20217;-75
2023/10/14 03:25:09;;;;;;;7.97;3.53;;;;;;;;;;5016295;28;20209;-75
2023/10/14 03:28:14;;;;;;;5.70;2.57;;;;;;;;;;5016368;28;20213;-75
2023/10/14 03:31:24;;;;;;;5.80;3.07;;;;;;;;;;5016357;28;20692;-75
2023/10/14 03:34:31;;;;;;;5.90;3.40;;;;;;;;;;5016066;28;20186;-75
2023/10/14 03:37:40;;;;;;;4.93;2.67;;;;;;;;;;5005045;28;20185;-75
2023/10/14 03:43:59;;;;;;;5.90;2.87;;;;;;;;;;5016772;28;20181;-75
2023/10/14 03:47:04;;;;;;;7.50;3.60;;;;;;;;;;5016177;28;20185;-76
2023/10/14 03:50:09;;;;;;;4.43;3.00;;;;;;;;;;5016107;28;20181;-76
2023/10/14 03:53:13;;;;;;;10.17;3.37;;;;;;;;;;5015904;28;20221;-76
2023/10/14 03:56:17;;;;;;;6.93;3.10;;;;;;;;;;5016940;28;20194;-76
2023/10/14 03:59:22;;;;;;;5.27;3.03;;;;;;;;;;5016028;28;20186;-75
2023/10/14 04:02:27;;;;;;;5.87;3.03;;;;;;;;;;5018590;28;20229;-76
2023/10/14 04:05:37;;;;;;;9.90;3.30;;;;;;;;;;5008952;28;20186;-76
2023/10/14 04:08:50;;;;;;;5.87;2.87;;;;;;;;;;5008800;28;20213;-75
2023/10/14 04:11:59;;;;;;;7.97;3.50;;;;;;;;;;5008174;28;20221;-75
2023/10/14 04:18:24;;;;;;;6.40;3.40;;;;;;;;;;5020886;28;20182;-75
2023/10/14 04:21:38;;;;;;;4.97;3.43;;;;;;;;;;5019930;28;20221;-74
2023/10/14 04:31:00;;;;;;;8.03;3.43;;;;;;;;;;5020044;28;20181;-75
2023/10/14 04:34:14;;;;;;;8.77;3.70;;;;;;;;;;5007367;28;20190;-75
2023/10/14 04:37:20;;;;;;;7.00;3.43;;;;;;;;;;5019616;28;20633;-75
2023/10/14 04:47:01;;;;;;;5.50;3.27;;;;;;;;;;5017009;28;20185;-75
2023/10/14 04:50:13;;;;;;;9.17;3.67;;;;;;;;;;5005665;28;20217;-75
2023/10/14 04:53:19;;;;;;;8.03;3.53;;;;;;;;;;5016600;28;20213;-74
2023/10/14 04:56:29;;;;;;;6.70;3.40;;;;;;;;;;5017390;28;20186;-74
2023/10/14 04:59:36;;;;;;;7.03;3.27;;;;;;;;;;5006133;28;20178;-75
2023/10/14 05:02:41;;;;;;;5.33;3.17;;;;;;;;;;5016817;28;20217;-75
2023/10/14 05:05:49;;;;;;;8.77;3.50;;;;;;;;;;5017841;28;20190;-75
2023/10/14 05:08:55;;;;;;;5.03;3.27;;;;;;;;;;5016368;28;20210;-75
2023/10/14 05:12:00;;;;;;;5.43;3.70;;;;;;;;;;5017498;28;20221;-74
2023/10/14 05:15:12;;;;;;;12.17;3.80;;;;;;;;;;5016812;28;20182;-75
2023/10/14 05:18:16;;;;;;;5.43;3.43;;;;;;;;;;5016109;28;20191;-74
2023/10/14 05:21:35;;;;;;;5.60;3.83;;;;;;;;;;5004425;28;20284;-75
2023/10/14 05:24:48;;;;;;;7.60;3.73;;;;;;;;;;5015917;28;20209;-75
2023/10/14 05:27:55;;;;;;;6.47;3.80;;;;;;;;;;5014342;28;20185;-75
2023/10/14 05:31:05;;;;;;;6.80;3.17;;;;;;;;;;5014709;28;20174;-75
2023/10/14 05:34:09;;;;;;;7.07;3.77;;;;;;;;;;5014909;28;20186;-75
2023/10/14 05:37:14;;;;;;;7.63;3.37;;;;;;;;;;5015537;28;20629;-75
2023/10/14 05:40:21;;;;;;;8.87;3.67;;;;;;;;;;5015391;28;20181;-75
2023/10/14 05:43:26;;;;;;;5.93;3.57;;;;;;;;;;5014371;28;20185;-76
2023/10/14 05:46:30;;;;;;;6.57;3.80;;;;;;;;;;5014600;28;20189;-76
2023/10/14 05:49:35;;;;;;;12.97;8.97;;;;;;;;;;5015009;28;20554;-76
2023/10/14 05:52:41;;;;;;;15.93;9.87;;;;;;;;;;5003084;28;20584;-76
2023/10/14 05:55:47;;;;;;;8.30;3.47;;;;;;;;;;5014990;28;20202;-74
2023/10/14 05:58:52;;;;;;;7.37;4.43;;;;;;;;;;5014782;28;20526;-75
2023/10/14 06:01:56;;;;;;;7.73;3.77;;;;;;;;;;5014258;28;20225;-74
2023/10/14 06:05:00;;;;;;;8.10;3.50;;;;;;;;;;5014672;28;20185;-74
2023/10/14 06:08:11;;;;;;;9.57;4.03;;;;;;;;;;5014797;28;20193;-74
2023/10/14 06:11:18;;;;;;;6.90;4.30;;;;;;;;;;5014083;28;20570;-74
2023/10/14 06:14:25;;;;;;;6.83;4.00;;;;;;;;;;5013564;28;20185;-74
2023/10/14 06:17:29;;;;;;;6.53;3.87;;;;;;;;;;5014370;28;20186;-74
2023/10/14 06:20:33;;;;;;;6.43;4.30;;;;;;;;;;5013618;28;20178;-74
2023/10/14 06:23:39;;;;;;;12.97;4.00;;;;;;;;;;5014103;28;20217;-73
2023/10/14 06:26:43;;;;;;;6.40;3.80;;;;;;;;;;5013978;28;20569;-73
2023/10/14 06:29:48;;;;;;;7.40;4.13;;;;;;;;;;5014179;28;20684;-74
2023/10/14 06:32:58;;;;;;;9.93;4.70;;;;;;;;;;5002417;28;20213;-74
2023/10/14 06:36:04;;;;;;;7.67;4.30;;;;;;;;;;5014394;28;20633;-74
2023/10/14 06:39:14;;;;;;;10.37;3.90;;;;;;;;;;5013158;28;20653;-74
2023/10/14 06:42:22;;;;;;;14.47;3.93;;;;;;;;;;5012983;28;20217;-74
2023/10/14 06:45:31;;;;;;;7.10;4.20;;;;;;;;;;5014243;28;20190;-74
2023/10/14 06:48:38;;;;;;;8.37;3.80;;;;;;;;;;5013301;28;20178;-74
2023/10/14 06:51:46;;;;;;;7.57;3.80;;;;;;;;;;5013796;28;20705;-75
2023/10/14 06:54:53;;;;;;;9.70;3.90;;;;;;;;;;5013995;28;20186;-74
2023/10/14 06:57:57;;;;;;;9.53;4.27;;;;;;;;;;5013390;28;20219;-75
2023/10/14 07:01:03;;;;;;;7.33;3.57;;;;;;;;;;5014841;28;20189;-75
2023/10/14 07:04:07;;;;;;;10.30;3.83;;;;;;;;;;5014173;28;20185;-75
2023/10/14 07:07:11;;;;;;;7.80;3.43;;;;;;;;;;5014066;28;20213;-75
2023/10/14 07:10:16;;;;;;;8.70;3.83;;;;;;;;;;5014423;28;20542;-74
2023/10/14 07:13:21;;;;;;;11.13;3.60;;;;;;;;;;5013320;28;20190;-75
2023/10/14 07:16:25;;;;;;;7.07;3.47;;;;;;;;;;5013426;28;20571;-75
2023/10/14 07:19:29;;;;;;;8.37;3.70;;;;;;;;;;5012927;28;20633;-75
2023/10/14 07:22:33;;;;;;;7.17;3.40;;;;;;;;;;5014061;28;20696;-74
2023/10/14 07:25:41;;;;;;;7.03;3.57;;;;;;;;;;5013550;28;20186;-75
2023/10/14 07:28:51;;;;;;;8.37;3.60;;;;;;;;;;5014035;28;20182;-74
2023/10/14 07:31:55;;;;;;;9.27;3.50;;;;;;;;;;5013883;28;20209;-75
2023/10/14 07:35:02;;;;;;;8.50;3.70;;;;;;;;;;5013749;28;20189;-75
2023/10/14 07:38:06;;;;;;;10.40;3.30;;;;;;;;;;5012967;28;20182;-74
2023/10/14 07:41:12;;;;;;;10.83;3.80;;;;;;;;;;5014160;28;20178;-75
2023/10/14 07:44:17;;;;;;;6.30;3.57;;;;;;;;;;5013320;28;20185;-74
2023/10/14 07:47:23;;;;;;;13.23;3.73;;;;;;;;;;5012564;28;20185;-75
2023/10/14 07:50:31;;;;;;;7.63;3.43;;;;;;;;;;5016713;28;20210;-75
2023/10/14 07:53:36;;;;;;;9.07;3.33;;;;;;;;;;5005403;28;20190;-75
2023/10/14 07:56:43;;;;;;;11.60;3.87;;;;;;;;;;5017104;28;20185;-75
2023/10/14 07:59:50;;;;;;;7.03;3.07;;;;;;;;;;5016222;28;20188;-75
2023/10/14 08:02:55;;;;;;;6.50;3.63;;;;;;;;;;5016109;28;20217;-75
2023/10/14 08:05:59;;;;;;;13.07;3.57;;;;;;;;;;5016418;28;20181;-74
2023/10/14 08:09:04;;;;;;;7.17;2.90;;;;;;;;;;5016811;28;20197;-74
2023/10/14 08:12:08;;;;;;;4.57;3.00;;;;;;;;;;5016722;28;20229;-74
2023/10/14 08:15:14;;;;;;;8.90;3.33;;;;;;;;;;5017291;28;20181;-75
2023/10/14 08:18:19;;;;;;;8.30;3.13;;;;;;;;;;5004332;28;20534;-75
2023/10/14 08:21:23;;;;;;;10.10;2.90;;;;;;;;;;5015803;28;20217;-75
2023/10/14 08:24:27;;;;;;;5.73;2.90;;;;;;;;;;5016439;28;20718;-75
2023/10/14 08:27:33;;;;;;;6.10;3.07;;;;;;;;;;5015793;28;20181;-75
2023/10/14 08:30:46;;;;;;;6.80;3.40;;;;;;;;;;5015592;28;20213;-75
2023/10/14 08:33:50;;;;;;;5.33;3.33;;;;;;;;;;5016526;28;20190;-76
2023/10/14 08:36:56;;;;;;;7.10;3.50;;;;;;;;;;5015572;28;20641;-75
2023/10/14 08:40:00;;;;;;;11.17;3.43;;;;;;;;;;5015438;28;20534;-76
2023/10/14 08:43:05;;;;;;;6.73;3.27;;;;;;;;;;5016021;28;20228;-75
2023/10/14 08:46:10;;;;;;;6.57;3.20;;;;;;;;;;5003916;28;20185;-76
2023/10/14 08:49:19;;;;;;;7.17;3.20;;;;;;;;;;5016157;28;20190;-75
2023/10/14 08:52:26;;;;;;;5.87;3.00;;;;;;;;;;5015482;28;20225;-75
2023/10/14 08:55:33;;;;;;;5.93;3.57;;;;;;;;;;5004764;28;20194;-75
2023/10/14 08:58:38;;;;;;;6.27;2.87;;;;;;;;;;5015790;28;20185;-76
2023/10/14 09:01:42;;;;;;;8.97;3.30;;;;;;;;;;5015948;28;20221;-76
2023/10/14 09:04:46;;;;;;;7.00;3.20;;;;;;;;;;5015104;28;20189;-75
2023/10/14 09:07:54;;;;;;;6.47;3.10;;;;;;;;;;5015419;28;20190;-75
2023/10/14 09:10:58;;;;;;;5.83;3.50;;;;;;;;;;5015835;28;20575;-75
2023/10/14 09:14:05;;;;;;;9.77;3.50;;;;;;;;;;5015237;28;20637;-75
2023/10/14 09:17:10;;;;;;;9.87;3.30;;;;;;;;;;5015894;28;20514;-75
2023/10/14 09:20:41;;;;;;;10.07;4.07;;;;;;;;;;5015402;28;20178;-74
2023/10/14 09:23:47;;;;;;;6.07;3.27;;;;;;;;;;5055532;22;20250;-85
2023/10/14 09:26:52;;;;;;;7.03;3.83;;;;;;;;;;5043036;28;20176;-84
2023/10/14 09:29:59;;;;;;;5.77;3.27;;;;;;;;;;5056138;28;20224;-85
2023/10/14 09:33:04;;;;;;;6.17;3.40;;;;;;;;;;5043584;28;20188;-85
2023/10/14 09:36:14;;;;;;;9.87;3.80;;;;;;;;;;5032264;28;20184;-83
2023/10/14 09:39:24;;;;;;;6.37;3.13;;;;;;;;;;5032407;28;20189;-83
2023/10/14 09:42:31;;;;;;;8.97;3.57;;;;;;;;;;5042715;28;20180;-84
2023/10/14 09:45:37;;;;;;;6.80;3.40;;;;;;;;;;5043158;28;20522;-83
2023/10/14 09:48:44;;;;;;;8.77;3.80;;;;;;;;;;5055649;28;20184;-84
2023/10/14 09:51:53;;;;;;;10.10;3.27;;;;;;;;;;5044161;28;20208;-84
2023/10/14 09:54:59;;;;;;;10.07;3.27;;;;;;;;;;5032132;28;20216;-82
2023/10/14 09:58:04;;;;;;;8.43;3.10;;;;;;;;;;5023517;28;20195;-84
2023/10/14 10:01:16;;;;;;;9.47;3.20;;;;;;;;;;5020684;28;20180;-82
2023/10/14 10:04:26;;;;;;;5.37;3.30;;;;;;;;;;5035929;28;20228;-83
2023/10/14 10:07:53;;;;;;;6.73;4.00;;;;;;;;;;5034927;28;20185;-83
2023/10/14 10:11:01;;;;;;;9.50;3.40;;;;;;;;;;5035018;28;20208;-85
2023/10/14 10:14:12;;;;;;;5.37;3.50;;;;;;;;;;5011258;28;20220;-85
2023/10/14 10:17:16;;;;;;;9.10;4.07;;;;;;;;;;5011416;28;20531;-85
2023/10/14 10:20:35;;;;;;;11.87;3.73;;;;;;;;;;5034269;28;20184;-86
2023/10/14 10:23:40;;;;;;;5.63;3.30;;;;;;;;;;5011619;28;20228;-85
2023/10/14 10:27:02;;;;;;;11.43;3.77;;;;;;;;;;5032030;28;20188;-85
2023/10/14 10:30:11;;;;;;;10.33;3.50;;;;;;;;;;5024085;28;20213;-84
2023/10/14 10:33:15;;;;;;;6.20;3.50;;;;;;;;;;5037095;28;20231;-84
2023/10/14 10:36:24;;;;;;;7.20;3.47;;;;;;;;;;5039713;28;20626;-85
2023/10/14 10:39:34;;;;;;;6.80;3.40;;;;;;;;;;5017254;28;20181;-84
2023/10/14 10:42:56;;;;;;;8.30;3.70;;;;;;;;;;5029958;28;20189;-86
2023/10/14 10:46:00;;;;;;;8.43;3.70;;;;;;;;;;5062465;28;20189;-85
2023/10/14 10:49:06;;;;;;;7.97;3.53;;;;;;;;;;5057159;28;20197;-86
2023/10/14 10:52:14;;;;;;;7.77;3.60;;;;;;;;;;5041758;28;20208;-85
2023/10/14 10:55:19;;;;;;;11.03;3.87;;;;;;;;;;5038875;28;20189;-85
2023/10/14 10:58:24;;;;;;;5.20;3.13;;;;;;;;;;5037650;28;20214;-85
2023/10/14 11:01:32;;;;;;;8.80;3.43;;;;;;;;;;5047304;28;20186;-84
2023/10/14 11:04:45;;;;;;;7.67;3.87;;;;;;;;;;5032300;28;20224;-84
2023/10/14 11:07:49;;;;;;;9.33;3.80;;;;;;;;;;5042872;28;20180;-84
2023/10/14 11:10:57;;;;;;;6.17;3.50;;;;;;;;;;5029900;28;20212;-85
2023/10/14 11:14:16;;;;;;;7.17;3.27;;;;;;;;;;5041993;28;20228;-84
2023/10/14 11:17:22;;;;;;;9.23;3.13;;;;;;;;;;5029639;28;20177;-84
2023/10/14 11:20:33;;;;;;;8.43;3.20;;;;;;;;;;5029361;28;20181;-82
2023/10/14 11:23:39;;;;;;;7.30;3.00;;;;;;;;;;5042015;28;20222;-82
2023/10/14 11:26:44;;;;;;;12.27;3.00;;;;;;;;;;5034006;28;20184;-82
2023/10/14 11:29:49;;;;;;;6.87;3.10;;;;;;;;;;5045465;28;20185;-82
2023/10/14 11:32:58;;;;;;;4.80;2.83;;;;;;;;;;5033012;28;20185;-83
2023/10/14 11:36:06;;;;;;;9.13;3.23;;;;;;;;;;5020806;28;20177;-83
2023/10/14 11:39:14;;;;;;;23.80;3.80;;;;;;;;;;5032480;28;20646;-83
2023/10/14 11:42:19;;;;;;;3.67;2.73;;;;;;;;;;5032321;28;20184;-83
2023/10/14 11:45:25;;;;;;;5.93;2.77;;;;;;;;;;5044083;28;20189;-84
2023/10/14 11:48:37;;;;;;;4.23;3.00;;;;;;;;;;5032259;28;20185;-83
2023/10/14 11:51:47;;;;;;;7.30;3.30;;;;;;;;;;5021108;28;20208;-84
2023/10/14 11:54:52;;;;;;;7.00;3.20;;;;;;;;;;5033872;28;20213;-85
2023/10/14 11:57:58;;;;;;;4.87;2.77;;;;;;;;;;5035153;28;20193;-85
2023/10/14 12:06:01;;;;;;;8.60;2.63;;;;;;;;;;5013287;28;20201;-84
2023/10/14 12:09:05;;;;;;;7.47;2.20;;;;;;;;;;5031638;28;20600;-84
2023/10/14 12:12:09;;;;;;;12.53;2.20;;;;;;;;;;5009707;28;20217;-83
2023/10/14 12:15:14;;;;;;;9.80;2.20;;;;;;;;;;5031821;28;20193;-84
2023/10/14 12:18:20;;;;;;;6.83;2.30;;;;;;;;;;5031079;28;20650;-84
2023/10/14 12:21:27;;;;;;;5.47;2.37;;;;;;;;;;5031038;28;20181;-83
2023/10/14 12:24:34;;;;;;;7.50;2.30;;;;;;;;;;5007904;28;20228;-84
2023/10/14 12:28:03;;;;;;;4.67;1.97;;;;;;;;;;5042560;28;20185;-83
2023/10/14 12:31:12;;;;;;;7.23;2.40;;;;;;;;;;5042053;28;20242;-83
2023/10/14 12:34:19;;;;;;;5.80;2.07;;;;;;;;;;5029716;28;20217;-83
2023/10/14 12:37:28;;;;;;;5.40;2.53;;;;;;;;;;5029786;28;20181;-83
2023/10/14 12:40:33;;;;;;;2.77;2.00;;;;;;;;;;5028656;28;20189;-83
2023/10/14 12:43:39;;;;;;;6.07;2.40;;;;;;;;;;5028331;28;20224;-83
2023/10/14 12:46:45;;;;;;;4.73;2.00;;;;;;;;;;5017196;28;20185;-85
2023/10/14 12:49:58;;;;;;;2.17;1.67;;;;;;;;;;5040068;28;20185;-85
2023/10/14 12:53:12;;;;;;;3.07;1.27;;;;;;;;;;5006794;28;20189;-85
2023/10/14 12:57:03;;;;;;;4.27;1.60;;;;;;;;;;5044319;28;20176;-85
2023/10/14 13:00:29;;;;;;;3.43;1.00;;;;;;;;;;5016059;28;20169;-85
2023/10/14 13:03:35;;;;;;;2.27;0.80;;;;;;;;;;5006498;28;20212;-85
2023/10/14 13:06:44;;;;;;;1.53;0.80;;;;;;;;;;5029332;28;20189;-85
2023/10/14 13:10:19;;;;;;;4.80;0.90;;;;;;;;;;5018646;28;20189;-85
2023/10/14 13:13:26;;;;;;;5.30;2.50;;;;;;;;;;5005795;28;20566;-85
2023/10/14 13:21:18;;;;;;;4.10;2.43;;;;;;;;;;5034795;28;20228;-85
2023/10/14 13:24:34;;;;;;;1.30;1.20;;;;;;;;;;5015197;28;20232;-85
2023/10/14 13:28:28;;;;;;;1.27;0.30;;;;;;;;;;5014324;28;20193;-85
2023/10/14 13:32:16;;;;;;;0.50;0.50;;;;;;;;;;5036177;28;20216;-85
2023/10/14 13:35:31;;;;;;;1.80;0.50;;;;;;;;;;5025229;28;20177;-86
2023/10/14 13:38:58;;;;;;;2.17;1.00;;;;;;;;;;5025149;28;20634;-85
2023/10/14 13:47:13;;;;;;;1.83;0.70;;;;;;;;;;5007180;28;20201;-84
2023/10/14 13:50:20;;;;;;;0.97;0.40;;;;;;;;;;5012927;28;20185;-86
2023/10/14 13:53:34;;;;;;;3.03;0.50;;;;;;;;;;5002852;28;20220;-85
2023/10/14 13:56:44;;;;;;;0.87;0.30;;;;;;;;;;5023622;28;20543;-85
2023/10/14 13:59:48;;;;;;;1.33;0.33;;;;;;;;;;5024222;28;20188;-83
2023/10/14 14:02:53;;;;;;;1.17;0.40;;;;;;;;;;5002011;28;20189;-85
2023/10/14 14:05:57;;;;;;;0.63;0.30;;;;;;;;;;5012935;28;20184;-84
2023/10/14 14:09:02;;;;;;;1.33;0.50;;;;;;;;;;5001473;28;20181;-85
2023/10/14 14:12:07;;;;;;;1.10;0.50;;;;;;;;;;5002420;28;20670;-85
2023/10/14 14:15:14;;;;;;;1.50;0.40;;;;;;;;;;5002369;28;20224;-85
2023/10/14 14:18:19;;;;;;;1.20;0.30;;;;;;;;;;5013945;28;20654;-85
2023/10/14 14:21:23;;;;;;;1.93;0.50;;;;;;;;;;5014715;28;20181;-85
2023/10/14 14:24:33;;;;;;;0.40;0.40;;;;;;;;;;5001897;28;20228;-86
2023/10/14 14:27:39;;;;;;;0.50;0.40;;;;;;;;;;5023703;28;20185;-85
2023/10/14 14:30:43;;;;;;;0.97;0.30;;;;;;;;;;5001518;28;20184;-86
2023/10/14 14:33:50;;;;;;;0.70;0.30;;;;;;;;;;5004101;28;20212;-86
2023/10/14 14:36:54;;;;;;;0.30;0.30;;;;;;;;;;5013674;28;20630;-85
2023/10/14 14:43:42;;;;;;;2.90;2.10;;;;;;;;;;5022386;28;20589;-84
2023/10/14 14:46:49;;;;;;;1.97;1.30;;;;;;;;;;5014036;28;20527;-84
2023/10/14 14:49:55;;;;;;;0.87;0.80;;;;;;;;;;5047848;28;20197;-82
2023/10/14 14:53:00;;;;;;;1.43;0.60;;;;;;;;;;5025328;28;20220;-81
2023/10/14 14:56:14;;;;;;;0.53;0.50;;;;;;;;;;5026298;28;20189;-81
2023/10/14 14:59:18;;;;;;;2.27;0.47;;;;;;;;;;5039523;28;20184;-81
2023/10/14 15:02:22;;;;;;;0.50;0.43;;;;;;;;;;5037956;28;20180;-81
2023/10/14 15:05:34;;;;;;;2.53;0.63;;;;;;;;;;5019532;28;20192;-81
2023/10/14 15:08:38;;;;;;;2.97;0.73;;;;;;;;;;5049829;28;20184;-82
2023/10/14 15:11:44;;;;;;;2.50;0.60;;;;;;;;;;5035712;28;20692;-82
2023/10/14 15:14:54;;;;;;;1.80;0.57;;;;;;;;;;5031183;28;20219;-81
2023/10/14 15:17:59;;;;;;;1.10;0.70;;;;;;;;;;5037846;28;20527;-82
2023/10/14 15:21:03;;;;;;;2.23;0.70;;;;;;;;;;5032942;28;20184;-82
2023/10/14 15:24:09;;;;;;;1.43;0.70;;;;;;;;;;5021128;28;20232;-82
2023/10/14 15:27:13;;;;;;;1.03;0.50;;;;;;;;;;4997909;28;20642;-82
2023/10/14 15:30:18;;;;;;;1.47;0.63;;;;;;;;;;5018006;28;20189;-82
2023/10/14 15:33:22;;;;;;;2.50;0.57;;;;;;;;;;5023862;28;20228;-82
2023/10/14 15:36:29;;;;;;;1.03;0.60;;;;;;;;;;4994517;28;20536;-82
2023/10/14 15:39:34;;;;;;;0.87;0.50;;;;;;;;;;5006249;28;20189;-82
2023/10/14 15:42:39;;;;;;;0.77;0.43;;;;;;;;;;5019994;28;20185;-82
2023/10/14 15:45:44;;;;;;;1.70;0.50;;;;;;;;;;5018358;28;20194;-82
2023/10/14 15:48:51;;;;;;;1.90;0.60;;;;;;;;;;5017160;28;20189;-84
2023/10/14 15:51:57;;;;;;;1.53;0.80;;;;;;;;;;5013327;28;20213;-88
2023/10/14 15:55:01;;;;;;;0.53;0.50;;;;;;;;;;5016677;28;20229;-85
2023/10/14 15:58:23;;;;;;;1.93;0.60;;;;;;;;;;5015335;28;20201;-84
2023/10/14 16:02:53;;;;;;;1.43;0.60;;;;;;;;;;5032636;28;20200;-84
2023/10/14 16:06:23;;;;;;;0.53;0.50;;;;;;;;;;5024448;28;20189;-85
2023/10/14 16:09:36;;;;;;;1.77;0.70;;;;;;;;;;5032251;28;20193;-84
2023/10/14 16:13:10;;;;;;;0.90;0.60;;;;;;;;;;5018984;28;20217;-83
2023/10/14 16:16:44;;;;;;;1.03;0.67;;;;;;;;;;5023441;28;20185;-84
2023/10/14 16:29:12;;;;;;;2.10;0.60;;;;;;;;;;5032316;28;20212;-84
2023/10/14 16:32:17;;;;;;;2.53;0.67;;;;;;;;;;5021087;28;20217;-84
2023/10/14 16:35:24;;;;;;;1.60;0.67;;;;;;;;;;5033734;28;20184;-84
2023/10/14 16:38:31;;;;;;;1.93;0.60;;;;;;;;;;5041830;28;20180;-85
2023/10/14 16:42:02;;;;;;;2.07;0.80;;;;;;;;;;5023211;28;20184;-84
2023/10/14 16:45:08;;;;;;;1.57;0.57;;;;;;;;;;5068775;28;20228;-85
2023/10/14 16:48:16;;;;;;;0.93;0.60;;;;;;;;;;5046102;28;20633;-85
2023/10/14 16:51:35;;;;;;;0.70;0.60;;;;;;;;;;5034378;28;20184;-85
2023/10/14 16:54:44;;;;;;;1.20;0.57;;;;;;;;;;5022666;28;20220;-85
2023/10/14 16:57:59;;;;;;;3.20;2.33;;;;;;;;;;5033356;28;20184;-85
2023/10/14 17:01:26;;;;;;;2.03;1.77;;;;;;;;;;5022555;28;20180;-85
2023/10/14 17:05:30;;;;;;;1.40;1.03;;;;;;;;;;5058002;28;20223;-85
2023/10/14 17:09:10;;;;;;;2.77;1.30;;;;;;;;;;5045406;28;20181;-85
2023/10/14 17:12:23;;;;;;;1.17;1.07;;;;;;;;;;5033668;28;20216;-85
2023/10/14 17:16:25;;;;;;;1.50;1.30;;;;;;;;;;5036163;28;20184;-85
2023/10/14 17:21:33;;;;;;;2.17;1.20;;;;;;;;;;5032420;28;20192;-85
2023/10/14 17:25:58;;;;;;;1.80;1.30;;;;;;;;;;5051843;28;20180;-85
2023/10/14 17:30:50;;;;;;;1.50;1.37;;;;;;;;;;5056159;28;20207;-84
2023/10/14 17:48:37;;;;;;;3.00;1.77;;;;;;;;;;5017695;28;20197;-85
2023/10/14 18:02:58;;;;;;;1.90;1.47;;;;;;;;;;5034469;28;20181;-84
2023/10/14 18:11:09;;;;;;;2.70;1.70;;;;;;;;;;5051039;28;20204;-84
2023/10/14 18:19:53;;;;;;;3.17;1.70;;;;;;;;;;5055871;28;20629;-85
2023/10/14 18:23:51;;;;;;;3.37;1.83;;;;;;;;;;5046450;28;20188;-85
2023/10/14 18:33:26;;;;;;;2.93;2.10;;;;;;;;;;5054644;28;20208;-84
2023/10/14 18:37:06;;;;;;;4.10;2.00;;;;;;;;;;5023511;28;20208;-84
2023/10/14 18:40:13;;;;;;;6.20;2.13;;;;;;;;;;5042327;28;20208;-85
2023/10/14 18:43:19;;;;;;;4.27;1.90;;;;;;;;;;5031346;28;20211;-85
2023/10/14 18:46:32;;;;;;;3.20;1.87;;;;;;;;;;5036000;28;20196;-85
2023/10/14 18:49:36;;;;;;;4.13;2.10;;;;;;;;;;5026938;28;20185;-84
2023/10/14 18:52:42;;;;;;;13.17;2.30;;;;;;;;;;5033777;28;20212;-85
2023/10/14 18:55:51;;;;;;;6.83;1.90;;;;;;;;;;5031486;28;20199;-85
2023/10/14 18:58:56;;;;;;;6.23;1.90;;;;;;;;;;5032161;28;20188;-84
2023/10/14 19:02:00;;;;;;;5.60;2.20;;;;;;;;;;5029389;28;20192;-84
2023/10/14 19:05:07;;;;;;;5.40;2.20;;;;;;;;;;5022217;28;20220;-84
2023/10/14 19:08:14;;;;;;;3.57;2.20;;;;;;;;;;5024780;28;20520;-85
2023/10/14 19:11:18;;;;;;;3.43;2.17;;;;;;;;;;5037468;28;20192;-84
2023/10/14 19:14:24;;;;;;;4.63;1.97;;;;;;;;;;5019950;28;20582;-85
2023/10/14 19:17:29;;;;;;;5.10;2.27;;;;;;;;;;5042041;28;20535;-84
2023/10/14 19:20:34;;;;;;;6.23;2.30;;;;;;;;;;5038905;28;20196;-85
2023/10/14 19:23:38;;;;;;;9.77;2.37;;;;;;;;;;5021974;28;20212;-84
2023/10/14 19:26:42;;;;;;;5.67;2.73;;;;;;;;;;5010864;28;20185;-84
2023/10/14 19:29:48;;;;;;;7.07;2.20;;;;;;;;;;5021674;28;20208;-84
2023/10/14 19:32:53;;;;;;;4.90;2.60;;;;;;;;;;5021554;28;20212;-85
2023/10/14 19:36:03;;;;;;;4.63;2.20;;;;;;;;;;4999222;28;20185;-85
2023/10/14 19:39:09;;;;;;;3.90;2.20;;;;;;;;;;5021229;28;20200;-85
2023/10/14 19:42:13;;;;;;;5.80;2.33;;;;;;;;;;5021328;28;20189;-85
2023/10/14 19:45:17;;;;;;;6.40;2.80;;;;;;;;;;5022418;28;20185;-85
2023/10/14 19:48:22;;;;;;;4.87;2.47;;;;;;;;;;5017451;28;20192;-85
2023/10/14 19:51:26;;;;;;;4.93;2.23;;;;;;;;;;5024955;28;20184;-85
2023/10/14 19:54:31;;;;;;;4.73;2.37;;;;;;;;;;5024679;28;20232;-84
2023/10/14 19:57:35;;;;;;;7.10;3.00;;;;;;;;;;5024662;28;20185;-84
2023/10/14 20:00:42;;;;;;;5.90;2.50;;;;;;;;;;5002042;28;20633;-84
2023/10/14 20:08:57;;;;;;;11.33;2.80;;;;;;;;;;5026359;28;20189;-85
2023/10/14 20:12:03;;;;;;;8.90;2.90;;;;;;;;;;5024981;28;20580;-85
2023/10/14 20:15:08;;;;;;;5.53;2.73;;;;;;;;;;5036717;28;20217;-84
2023/10/14 20:18:13;;;;;;;5.60;2.43;;;;;;;;;;5037415;28;20176;-83
2023/10/14 20:21:19;;;;;;;7.73;2.60;;;;;;;;;;5025334;28;20181;-84
2023/10/14 20:24:25;;;;;;;7.00;2.50;;;;;;;;;;5036346;28;20212;-84
2023/10/14 20:27:31;;;;;;;6.90;2.60;;;;;;;;;;5025879;28;20181;-85
2023/10/14 20:30:40;;;;;;;8.63;2.60;;;;;;;;;;5038743;28;20188;-84
2023/10/14 20:33:50;;;;;;;10.33;2.97;;;;;;;;;;5015921;28;20677;-85
2023/10/14 20:36:57;;;;;;;5.57;2.50;;;;;;;;;;5038364;28;20192;-85
2023/10/14 20:40:05;;;;;;;6.70;2.87;;;;;;;;;;5038186;28;20689;-85